Time,TemperatureF,DewpointF,PressureIn,WindDirection,WindDirectionDegrees,WindSpeedMPH,WindSpeedGustMPH,Humidity,HourlyPrecipIn,Conditions,Clouds,dailyrainin,SolarRadiationWatts/m^2,SoftwareType,DateUTC
2013-02-25 00:01:00,17.0,11.0,-100.00,WNW,294,6.0,9.0,77,0.00,,,0.01,0.000000,,2013-02-25 07:01:00,
2013-02-25 00:11:00,17.0,11.0,-100.00,WNW,294,6.0,9.0,77,0.00,,,0.01,0.000000,,2013-02-25 07:11:00,
2013-02-25 00:21:00,17.0,11.0,-100.00,WNW,294,6.0,9.0,77,0.00,,,0.01,0.000000,,2013-02-25 07:21:00,
2013-02-25 00:31:00,17.0,11.0,-100.00,WNW,294,6.0,9.0,77,0.00,,,0.01,0.000000,,2013-02-25 07:31:00,
2013-02-25 00:52:00,15.0,9.0,-100.00,WNW,290,7.0,11.0,77,0.00,,,0.01,0.000000,,2013-02-25 07:52:00,
2013-02-25 01:01:00,15.0,9.0,-100.00,WNW,290,7.0,11.0,77,0.00,,,0.01,0.000000,,2013-02-25 08:01:00,
2013-02-25 01:11:00,15.0,9.0,-100.00,WNW,290,7.0,11.0,77,0.00,,,0.01,0.000000,,2013-02-25 08:11:00,
2013-02-25 01:21:00,15.0,9.0,-100.00,WNW,290,7.0,11.0,77,0.00,,,0.01,0.000000,,2013-02-25 08:21:00,
2013-02-25 01:32:00,15.0,9.0,-100.00,WNW,290,7.0,11.0,77,0.00,,,0.01,0.000000,,2013-02-25 08:32:00,
2013-02-25 01:52:00,14.0,8.0,-100.00,WNW,288,8.0,13.0,75,0.00,,,0.01,0.000000,,2013-02-25 08:52:00,
2013-02-25 02:01:00,14.0,8.0,-100.00,WNW,288,8.0,13.0,75,0.00,,,0.01,0.000000,,2013-02-25 09:01:00,
2013-02-25 02:12:00,14.0,8.0,-100.00,WNW,288,8.0,13.0,75,0.00,,,0.01,0.000000,,2013-02-25 09:12:00,
2013-02-25 02:21:00,14.0,8.0,-100.00,WNW,288,8.0,13.0,75,0.00,,,0.01,0.000000,,2013-02-25 09:21:00,
2013-02-25 02:32:00,14.0,8.0,-100.00,WNW,288,8.0,13.0,75,0.00,,,0.01,0.000000,,2013-02-25 09:32:00,
2013-02-25 02:52:00,13.0,6.0,-100.00,WNW,290,8.0,13.0,72,0.00,,,0.01,0.000000,,2013-02-25 09:52:00,
2013-02-25 03:01:00,13.0,6.0,-100.00,WNW,290,8.0,13.0,72,0.00,,,0.01,0.000000,,2013-02-25 10:01:00,
2013-02-25 03:11:00,13.0,6.0,-100.00,WNW,290,8.0,13.0,72,0.00,,,0.01,0.000000,,2013-02-25 10:11:00,
2013-02-25 03:21:00,13.0,6.0,-100.00,WNW,290,8.0,13.0,72,0.00,,,0.01,0.000000,,2013-02-25 10:21:00,
2013-02-25 03:32:00,13.0,6.0,-100.00,WNW,290,8.0,13.0,72,0.00,,,0.01,0.000000,,2013-02-25 10:32:00,
2013-02-25 04:01:00,11.0,4.0,-100.00,WSW,253,3.0,9.0,72,0.00,,,0.01,0.000000,,2013-02-25 11:01:00,
2013-02-25 04:11:00,11.0,4.0,-100.00,WSW,253,3.0,9.0,72,0.00,,,0.01,0.000000,,2013-02-25 11:11:00,
2013-02-25 04:21:00,11.0,4.0,-100.00,WSW,253,3.0,9.0,72,0.00,,,0.01,0.000000,,2013-02-25 11:21:00,
2013-02-25 04:32:00,11.0,4.0,-100.00,WSW,253,3.0,9.0,72,0.00,,,0.01,0.000000,,2013-02-25 11:32:00,
2013-02-25 04:52:00,11.0,3.0,-100.00,West,279,5.0,9.0,70,0.00,,,-99.99,0.000000,,2013-02-25 11:52:00,
2013-02-25 05:02:00,11.0,3.0,-100.00,West,279,5.0,9.0,70,0.00,,,-99.99,0.000000,,2013-02-25 12:02:00,
2013-02-25 05:11:00,11.0,3.0,-100.00,West,279,5.0,9.0,70,0.00,,,-99.99,0.000000,,2013-02-25 12:11:00,
2013-02-25 05:21:00,11.0,3.0,-100.00,West,279,5.0,9.0,70,0.00,,,-99.99,0.000000,,2013-02-25 12:21:00,
2013-02-25 05:32:00,11.0,3.0,-100.00,West,279,5.0,9.0,70,0.00,,,-99.99,0.000000,,2013-02-25 12:32:00,
2013-02-25 06:02:00,9.0,1.0,-100.00,WNW,288,6.0,10.0,69,0.00,,,0.01,0.000000,,2013-02-25 13:02:00,
2013-02-25 06:12:00,9.0,1.0,-100.00,WNW,288,6.0,10.0,69,0.00,,,0.01,0.000000,,2013-02-25 13:12:00,
2013-02-25 06:22:00,9.0,1.0,-100.00,WNW,288,6.0,10.0,69,0.00,,,0.01,0.000000,,2013-02-25 13:22:00,
2013-02-25 06:32:00,9.0,1.0,-100.00,WNW,288,6.0,10.0,69,0.00,,,0.01,0.000000,,2013-02-25 13:32:00,
2013-02-25 06:52:00,8.0,0.0,-100.00,WNW,296,5.0,10.0,70,0.00,,,0.01,1.000000,,2013-02-25 13:52:00,
2013-02-25 07:03:00,8.0,0.0,-100.00,WNW,296,5.0,10.0,70,0.00,,,0.01,1.000000,,2013-02-25 14:03:00,
2013-02-25 07:17:00,8.0,0.0,-100.00,WNW,296,5.0,10.0,70,0.00,,,0.01,1.000000,,2013-02-25 14:17:00,
2013-02-25 07:32:00,8.0,0.0,-100.00,WNW,296,5.0,10.0,70,0.00,,,0.01,1.000000,,2013-02-25 14:32:00,
2013-02-25 08:02:00,13.0,2.0,-100.00,WNW,292,6.0,13.0,60,0.00,,,0.01,22.000000,,2013-02-25 15:02:00,
2013-02-25 08:11:00,13.0,2.0,-100.00,WNW,292,6.0,13.0,60,0.00,,,0.01,22.000000,,2013-02-25 15:11:00,
2013-02-25 08:21:00,13.0,2.0,-100.00,WNW,292,6.0,13.0,60,0.00,,,0.01,22.000000,,2013-02-25 15:21:00,
2013-02-25 08:32:00,13.0,2.0,-100.00,WNW,292,6.0,13.0,60,0.00,,,0.01,22.000000,,2013-02-25 15:32:00,
2013-02-25 09:02:00,24.0,5.0,-100.00,WNW,292,6.0,12.0,44,0.00,,,0.01,170.000000,,2013-02-25 16:02:00,
2013-02-25 09:12:00,24.0,5.0,-100.00,WNW,292,6.0,12.0,44,0.00,,,0.01,170.000000,,2013-02-25 16:12:00,
2013-02-25 09:21:00,24.0,5.0,-100.00,WNW,292,6.0,12.0,44,0.00,,,0.01,170.000000,,2013-02-25 16:21:00,
2013-02-25 09:32:00,24.0,5.0,-100.00,WNW,292,6.0,12.0,44,0.00,,,0.01,170.000000,,2013-02-25 16:32:00,
2013-02-25 10:01:00,33.0,5.0,-100.00,WNW,303,4.0,8.0,30,0.00,,,0.01,415.000000,,2013-02-25 17:01:00,
2013-02-25 10:11:00,33.0,5.0,-100.00,WNW,303,4.0,8.0,30,0.00,,,0.01,415.000000,,2013-02-25 17:11:00,
2013-02-25 10:21:00,33.0,5.0,-100.00,WNW,303,4.0,8.0,30,0.00,,,0.01,415.000000,,2013-02-25 17:21:00,
2013-02-25 10:32:00,33.0,5.0,-100.00,WNW,303,4.0,8.0,30,0.00,,,0.01,415.000000,,2013-02-25 17:32:00,
2013-02-25 11:01:00,43.0,1.0,-100.00,West,277,4.0,9.0,17,0.00,,,0.01,552.000000,,2013-02-25 18:01:00,
2013-02-25 11:12:00,43.0,1.0,-100.00,West,277,4.0,9.0,17,0.00,,,0.01,552.000000,,2013-02-25 18:12:00,
2013-02-25 11:21:00,43.0,1.0,-100.00,West,277,4.0,9.0,17,0.00,,,0.01,552.000000,,2013-02-25 18:21:00,
2013-02-25 11:32:00,43.0,1.0,-100.00,West,277,4.0,9.0,17,0.00,,,0.01,552.000000,,2013-02-25 18:32:00,
2013-02-25 12:01:00,46.0,1.0,-100.00,SSE,162,6.0,11.0,15,0.00,,,0.00,636.000000,,2013-02-25 19:01:00,
2013-02-25 12:11:00,46.0,1.0,-100.00,SSE,162,6.0,11.0,15,0.00,,,0.00,636.000000,,2013-02-25 19:11:00,
2013-02-25 12:21:00,46.0,1.0,-100.00,SSE,162,6.0,11.0,15,0.00,,,0.00,636.000000,,2013-02-25 19:21:00,
2013-02-25 12:31:00,46.0,1.0,-100.00,SSE,162,6.0,11.0,15,0.00,,,0.00,636.000000,,2013-02-25 19:31:00,
2013-02-25 13:01:00,45.0,5.0,-100.00,SE,132,7.0,17.0,19,0.00,,,0.00,658.000000,,2013-02-25 20:01:00,
2013-02-25 13:11:00,45.0,5.0,-100.00,SE,132,7.0,17.0,19,0.00,,,0.00,658.000000,,2013-02-25 20:11:00,
2013-02-25 13:21:00,45.0,5.0,-100.00,SE,132,7.0,17.0,19,0.00,,,0.00,658.000000,,2013-02-25 20:21:00,
2013-02-25 13:31:00,45.0,5.0,-100.00,SE,132,7.0,17.0,19,0.00,,,0.00,658.000000,,2013-02-25 20:31:00,
2013-02-25 14:01:00,49.0,0.0,-100.00,SW,221,6.0,15.0,13,0.00,,,0.00,594.000000,,2013-02-25 21:01:00,
2013-02-25 14:11:00,49.0,0.0,-100.00,SW,221,6.0,15.0,13,0.00,,,0.00,594.000000,,2013-02-25 21:11:00,
2013-02-25 14:21:00,49.0,0.0,-100.00,SW,221,6.0,15.0,13,0.00,,,0.00,594.000000,,2013-02-25 21:21:00,
2013-02-25 14:31:00,49.0,0.0,-100.00,SW,221,6.0,15.0,13,0.00,,,0.00,594.000000,,2013-02-25 21:31:00,
2013-02-25 15:01:00,47.0,-1.0,-100.00,SSW,203,8.0,15.0,13,0.00,,,0.00,561.000000,,2013-02-25 22:01:00,
2013-02-25 15:11:00,47.0,-1.0,-100.00,SSW,203,8.0,15.0,13,0.00,,,0.00,561.000000,,2013-02-25 22:11:00,
2013-02-25 15:21:00,47.0,-1.0,-100.00,SSW,203,8.0,15.0,13,0.00,,,0.00,561.000000,,2013-02-25 22:21:00,
2013-02-25 15:32:00,47.0,-1.0,-100.00,SSW,203,8.0,15.0,13,0.00,,,0.00,561.000000,,2013-02-25 22:32:00,
2013-02-25 15:52:00,46.0,0.0,-100.00,SSW,203,7.0,14.0,14,0.00,,,0.00,60.000000,,2013-02-25 22:52:00,
2013-02-25 16:01:00,46.0,0.0,-100.00,SSW,203,7.0,14.0,14,0.00,,,0.00,60.000000,,2013-02-25 23:01:00,
2013-02-25 16:11:00,46.0,0.0,-100.00,SSW,203,7.0,14.0,14,0.00,,,0.00,60.000000,,2013-02-25 23:11:00,
2013-02-25 16:22:00,46.0,0.0,-100.00,SSW,203,7.0,14.0,14,0.00,,,0.00,60.000000,,2013-02-25 23:22:00,
2013-02-25 16:31:00,46.0,0.0,-100.00,SSW,203,7.0,14.0,14,0.00,,,0.00,60.000000,,2013-02-25 23:31:00,
2013-02-25 17:01:00,43.0,1.0,-100.00,SW,217,4.0,14.0,17,0.00,,,0.00,57.000000,,2013-02-26 00:01:00,
2013-02-25 17:12:00,43.0,1.0,-100.00,SW,217,4.0,14.0,17,0.00,,,0.00,57.000000,,2013-02-26 00:12:00,
2013-02-25 17:22:00,43.0,1.0,-100.00,SW,217,4.0,14.0,17,0.00,,,0.00,57.000000,,2013-02-26 00:22:00,
2013-02-25 17:32:00,43.0,1.0,-100.00,SW,217,4.0,14.0,17,0.00,,,0.00,57.000000,,2013-02-26 00:32:00,
2013-02-25 18:02:00,37.0,2.0,-100.00,WSW,245,6.0,15.0,22,0.00,,,0.00,26.000000,,2013-02-26 01:02:00,
2013-02-25 18:11:00,37.0,2.0,-100.00,WSW,245,6.0,15.0,22,0.00,,,0.00,26.000000,,2013-02-26 01:11:00,
2013-02-25 18:21:00,37.0,2.0,-100.00,WSW,245,6.0,15.0,22,0.00,,,0.00,26.000000,,2013-02-26 01:21:00,
2013-02-25 18:31:00,37.0,2.0,-100.00,WSW,245,6.0,15.0,22,0.00,,,0.00,26.000000,,2013-02-26 01:31:00,
2013-02-25 19:01:00,33.0,2.0,-100.00,West,268,5.0,14.0,26,0.00,,,0.00,1.000000,,2013-02-26 02:01:00,
2013-02-25 19:11:00,33.0,2.0,-100.00,West,268,5.0,14.0,26,0.00,,,0.00,1.000000,,2013-02-26 02:11:00,
2013-02-25 19:21:00,33.0,2.0,-100.00,West,268,5.0,14.0,26,0.00,,,0.00,1.000000,,2013-02-26 02:21:00,
2013-02-25 19:32:00,33.0,2.0,-100.00,West,268,5.0,14.0,26,0.00,,,0.00,1.000000,,2013-02-26 02:32:00,
2013-02-25 20:02:00,30.0,6.0,-100.00,WNW,287,7.0,13.0,36,0.00,,,0.00,0.000000,,2013-02-26 03:02:00,
2013-02-25 20:11:00,30.0,6.0,-100.00,WNW,287,7.0,13.0,36,0.00,,,0.00,0.000000,,2013-02-26 03:11:00,
2013-02-25 20:21:00,30.0,6.0,-100.00,WNW,287,7.0,13.0,36,0.00,,,0.00,0.000000,,2013-02-26 03:21:00,
2013-02-25 20:32:00,30.0,6.0,-100.00,WNW,287,7.0,13.0,36,0.00,,,0.00,0.000000,,2013-02-26 03:32:00,
2013-02-25 21:01:00,29.0,6.0,-100.00,WNW,285,7.0,13.0,37,0.00,,,0.00,0.000000,,2013-02-26 04:01:00,
2013-02-25 21:11:00,29.0,6.0,-100.00,WNW,285,7.0,13.0,37,0.00,,,0.00,0.000000,,2013-02-26 04:11:00,
2013-02-25 21:21:00,29.0,6.0,-100.00,WNW,285,7.0,13.0,37,0.00,,,0.00,0.000000,,2013-02-26 04:21:00,
2013-02-25 21:32:00,29.0,6.0,-100.00,WNW,285,7.0,13.0,37,0.00,,,0.00,0.000000,,2013-02-26 04:32:00,
2013-02-25 22:01:00,28.0,6.0,-100.00,WNW,284,6.0,11.0,38,0.00,,,0.00,0.000000,,2013-02-26 05:01:00,
2013-02-25 22:12:00,28.0,6.0,-100.00,WNW,284,6.0,11.0,38,0.00,,,0.00,0.000000,,2013-02-26 05:12:00,
2013-02-25 22:22:00,28.0,6.0,-100.00,WNW,284,6.0,11.0,38,0.00,,,0.00,0.000000,,2013-02-26 05:22:00,
2013-02-25 22:31:00,28.0,6.0,-100.00,WNW,284,6.0,11.0,38,0.00,,,0.00,0.000000,,2013-02-26 05:31:00,
2013-02-25 23:02:00,26.0,5.0,-100.00,West,261,5.0,12.0,40,0.00,,,0.00,0.000000,,2013-02-26 06:02:00,
2013-02-25 23:11:00,26.0,5.0,-100.00,West,261,5.0,12.0,40,0.00,,,0.00,0.000000,,2013-02-26 06:11:00,
2013-02-25 23:21:00,26.0,5.0,-100.00,West,261,5.0,12.0,40,0.00,,,0.00,0.000000,,2013-02-26 06:21:00,
2013-02-25 23:32:00,26.0,5.0,-100.00,West,261,5.0,12.0,40,0.00,,,0.00,0.000000,,2013-02-26 06:32:00,